Time;durP1;ratioP1;P1;durP2;ratioP2;P2;SDS_P1;SDS_P2;PMS_P1;PMS_P2;Temp;Humidity;BMP_temperature;BMP_pressure;BME280_temperature;BME280_humidity;BME280_pressure;Samples;Min_cycle;Max_cycle;Signal;HPM_P1;HPM_P2
2021/05/10 00:00:41;;;;;;;2.10;1.90;;;15.70;98.90;;;16.61;60.20;96859.38;5218975;28;20304;-67
2021/05/10 00:03:14;;;;;;;2.45;2.25;;;15.50;99.40;;;16.56;60.51;96861.00;5211086;28;20252;-68
2021/05/10 00:05:47;;;;;;;2.40;2.10;;;15.50;99.40;;;16.53;60.14;96868.69;5214329;28;20297;-68
2021/05/10 00:08:21;;;;;;;2.55;2.35;;;15.40;99.30;;;16.47;60.47;96868.59;5221108;28;20624;-67
2021/05/10 00:10:55;;;;;;;2.30;2.10;;;15.40;99.60;;;16.38;60.96;96863.28;5215637;28;20236;-67
2021/05/10 00:13:28;;;;;;;2.22;2.13;;;15.40;99.60;;;16.39;60.85;96867.59;5215717;28;20225;-69
2021/05/10 00:16:00;;;;;;;2.45;2.30;;;15.30;99.50;;;16.29;61.29;96863.13;5216319;28;20671;-68
2021/05/10 00:18:32;;;;;;;2.83;2.70;;;15.20;99.70;;;16.25;61.10;96863.88;5215936;28;20575;-68
2021/05/10 00:21:05;;;;;;;2.60;2.40;;;15.20;99.90;;;16.20;61.00;96856.06;5220951;28;20208;-69
2021/05/10 00:23:38;;;;;;;2.53;2.33;;;15.10;99.60;;;16.13;60.94;96862.81;5213210;28;20287;-67
2021/05/10 00:26:11;;;;;;;2.72;2.22;;;15.10;99.80;;;16.10;61.14;96870.47;5213508;28;20193;-67
2021/05/10 00:28:43;;;;;;;2.95;2.72;;;15.10;99.90;;;16.07;61.99;96877.28;5217379;28;20316;-67
2021/05/10 00:31:15;;;;;;;3.00;2.72;;;15.00;99.90;;;16.02;62.61;96877.19;5214597;28;20252;-67
2021/05/10 00:33:47;;;;;;;3.63;2.35;;;14.90;99.90;;;16.01;63.31;96888.34;5214585;28;20268;-67
2021/05/10 00:36:19;;;;;;;2.70;2.50;;;14.90;99.90;;;15.96;63.53;96889.97;5211103;28;20225;-68
2021/05/10 00:38:52;;;;;;;2.70;2.50;;;14.90;99.90;;;15.93;63.92;96897.63;5209157;28;20230;-67
2021/05/10 00:41:24;;;;;;;2.47;2.38;;;14.80;99.90;;;15.87;63.72;96889.78;5210021;28;20201;-69
2021/05/10 00:43:56;;;;;;;2.63;2.50;;;14.80;99.90;;;15.85;64.33;96886.28;5211208;28;20260;-69
2021/05/10 00:46:28;;;;;;;3.00;2.70;;;14.80;99.90;;;15.80;63.89;96895.66;5218469;28;20205;-69
2021/05/10 00:49:01;;;;;;;3.38;2.90;;;14.70;99.90;;;15.66;64.23;96885.03;5215114;28;20201;-68
2021/05/10 00:51:34;;;;;;;2.80;2.55;;;14.60;99.90;;;15.64;64.73;96884.13;5219890;28;20201;-69
2021/05/10 00:54:07;;;;;;;2.65;2.55;;;14.60;99.90;;;15.61;64.88;96877.19;5207992;28;20236;-68
2021/05/10 00:56:39;;;;;;;3.40;2.70;;;14.50;99.90;;;15.58;63.81;96871.97;5206802;28;20712;-70
2021/05/10 00:59:13;;;;;;;3.08;2.80;;;14.50;99.90;;;15.43;64.20;96869.06;5206996;28;20229;-68
2021/05/10 01:01:45;;;;;;;2.80;2.60;;;14.40;99.90;;;15.41;64.38;96870.75;5213690;28;20202;-67
2021/05/10 01:04:17;;;;;;;3.33;3.03;;;14.40;99.90;;;15.36;65.13;96869.75;5218522;28;20232;-67
2021/05/10 01:06:49;;;;;;;2.95;2.75;;;14.30;99.90;;;15.31;65.11;96877.41;5209204;28;20256;-67
2021/05/10 01:09:22;;;;;;;3.70;2.70;;;14.30;99.90;;;15.24;66.05;96876.38;5218520;28;20749;-67
2021/05/10 01:11:54;;;;;;;2.90;2.70;;;14.30;99.90;;;15.18;65.99;96876.22;5213372;28;20294;-68
2021/05/10 01:14:27;;;;;;;2.75;2.55;;;14.20;99.90;;;15.22;66.17;96872.00;5211008;28;20209;-68
2021/05/10 01:16:59;;;;;;;2.90;2.80;;;14.20;99.90;;;15.22;66.23;96870.34;5216827;28;20228;-68
2021/05/10 01:19:35;;;;;;;2.85;2.58;;;14.20;99.90;;;15.22;65.42;96872.91;5206005;28;20260;-67
2021/05/10 01:22:10;;;;;;;3.25;2.42;;;14.20;99.90;;;15.16;65.14;96867.59;5211579;28;20227;-68
2021/05/10 01:24:43;;;;;;;2.97;2.67;;;14.20;99.90;;;15.14;65.27;96864.13;5202642;28;20198;-67
2021/05/10 01:27:15;;;;;;;2.90;2.70;;;14.20;99.90;;;15.17;64.34;96864.22;5216381;28;20204;-67
2021/05/10 01:29:48;;;;;;;3.20;2.90;;;14.20;99.90;;;15.31;64.60;96864.53;5209862;28;20508;-67
2021/05/10 01:32:20;;;;;;;2.65;2.55;;;14.20;99.90;;;15.20;64.14;96861.69;5217479;28;20240;-69
2021/05/10 01:34:52;;;;;;;2.78;2.40;;;14.10;99.90;;;14.99;64.20;96866.34;5205359;28;20240;-69
2021/05/10 01:37:24;;;;;;;2.78;2.58;;;14.00;99.90;;;14.91;65.14;96867.84;5217518;28;20599;-69
2021/05/10 01:39:57;;;;;;;2.35;2.25;;;13.90;99.90;;;14.87;65.00;96864.34;5210890;28;20702;-67
2021/05/10 01:42:29;;;;;;;3.00;2.70;;;13.90;99.90;;;14.87;64.33;96854.91;5212566;28;20747;-67
2021/05/10 01:45:03;;;;;;;2.88;2.67;;;13.90;99.90;;;14.86;63.54;96868.63;5206296;28;20280;-67
2021/05/10 01:47:35;;;;;;;3.72;2.75;;;13.90;99.90;;;14.86;64.53;96868.63;5215301;28;20292;-69
2021/05/10 01:50:14;;;;;;;2.50;2.30;;;13.90;99.90;;;14.90;63.68;96855.84;5211297;28;20289;-67
2021/05/10 01:52:47;;;;;;;2.50;2.30;;;13.90;99.90;;;14.84;63.50;96849.69;5209620;28;20752;-67
2021/05/10 01:55:23;;;;;;;2.47;2.28;;;13.90;99.90;;;14.86;63.04;96844.59;5202673;28;20198;-69
2021/05/10 01:57:57;;;;;;;2.63;2.42;;;14.00;99.90;;;14.88;63.43;96840.38;5213868;28;20305;-68
2021/05/10 02:00:36;;;;;;;3.00;2.47;;;14.00;99.90;;;14.90;63.22;96833.53;5211457;28;20204;-67
2021/05/10 02:03:11;;;;;;;2.20;2.10;;;14.00;99.90;;;14.87;63.66;96849.78;5211921;28;20217;-67
2021/05/10 02:05:44;;;;;;;2.55;2.35;;;14.00;99.90;;;14.92;63.56;96841.31;5210836;28;20288;-68
2021/05/10 02:08:20;;;;;;;2.60;2.40;;;14.00;99.90;;;14.88;64.44;96840.38;5205396;28;20322;-69
2021/05/10 02:10:53;;;;;;;3.03;2.75;;;14.00;99.90;;;14.76;64.47;96830.63;5217025;28;20569;-67
2021/05/10 02:13:26;;;;;;;2.85;2.65;;;13.90;99.90;;;14.88;62.42;96845.53;5206148;28;20700;-68
2021/05/10 02:16:00;;;;;;;2.83;2.20;;;13.90;99.90;;;14.84;63.81;96849.69;5215124;28;20201;-67
2021/05/10 02:18:35;;;;;;;2.95;2.70;;;13.90;99.90;;;14.79;64.00;96845.28;5213687;28;20711;-67
2021/05/10 02:21:08;;;;;;;3.17;2.83;;;13.90;99.90;;;14.78;64.96;96849.56;5217248;28;20562;-68
2021/05/10 02:23:40;;;;;;;2.97;2.65;;;13.90;99.90;;;14.79;65.45;96843.59;5207399;28;20218;-68
2021/05/10 02:26:13;;;;;;;3.03;2.83;;;13.80;99.90;;;14.73;65.35;96840.84;5209883;28;20285;-68
2021/05/10 02:28:45;;;;;;;2.78;2.65;;;13.80;99.90;;;14.69;65.90;96846.78;5216283;28;20198;-67
2021/05/10 02:31:17;;;;;;;2.65;2.45;;;13.80;99.90;;;14.69;65.63;96849.34;5218122;28;20205;-67
2021/05/10 02:33:49;;;;;;;2.75;2.55;;;13.70;99.90;;;14.64;66.36;96845.78;5212268;28;20229;-67
2021/05/10 02:36:22;;;;;;;2.90;2.70;;;13.70;99.90;;;14.63;66.05;96855.19;5215639;28;20305;-68
2021/05/10 02:38:54;;;;;;;2.72;2.63;;;13.60;99.90;;;14.54;65.44;96838.69;5218612;28;20288;-68
2021/05/10 02:41:27;;;;;;;3.10;2.90;;;13.60;99.90;;;14.62;65.76;96842.28;5220970;28;20204;-68
2021/05/10 02:43:59;;;;;;;3.17;2.88;;;13.60;99.90;;;14.43;65.52;96828.94;5209858;28;20591;-67
2021/05/10 02:46:31;;;;;;;2.80;2.70;;;13.50;99.90;;;14.38;66.11;96827.97;5215751;28;20614;-67
2021/05/10 02:49:03;;;;;;;2.83;2.63;;;13.40;99.90;;;14.39;65.34;96824.59;5209310;28;20201;-67
2021/05/10 02:51:36;;;;;;;3.78;3.50;;;13.40;99.90;;;14.36;64.48;96839.03;5214711;28;20218;-69
2021/05/10 02:54:08;;;;;;;3.05;2.78;;;13.40;99.90;;;14.29;65.13;96842.28;5213509;28;20778;-69
2021/05/10 02:56:41;;;;;;;2.40;2.25;;;13.40;99.90;;;14.28;64.46;96843.09;5205048;28;20251;-69
2021/05/10 02:59:13;;;;;;;2.75;2.42;;;13.40;99.90;;;14.26;65.65;96835.38;5208446;28;20289;-68
2021/05/10 03:01:45;;;;;;;3.45;3.17;;;13.40;99.90;;;14.28;63.97;96836.28;5212362;28;20292;-68
2021/05/10 03:04:17;;;;;;;3.22;3.03;;;13.40;99.90;;;14.36;64.03;96844.19;5217320;28;20301;-67
2021/05/10 03:06:49;;;;;;;2.92;2.70;;;13.50;99.90;;;14.30;65.09;96844.88;5216736;28;20285;-68
2021/05/10 03:09:22;;;;;;;3.50;3.17;;;13.50;99.90;;;14.33;64.30;96839.81;5213134;28;20272;-68
2021/05/10 03:11:55;;;;;;;3.50;3.20;;;13.50;99.90;;;14.31;64.78;96831.22;5215295;28;20575;-68
2021/05/10 03:14:27;;;;;;;3.40;3.10;;;13.50;99.90;;;14.38;65.78;96829.66;5207033;28;20621;-68
2021/05/10 03:16:59;;;;;;;5.00;3.03;;;13.50;99.90;;;14.34;65.39;96823.59;5215397;28;20261;-67
2021/05/10 03:19:31;;;;;;;3.30;3.10;;;13.40;99.90;;;14.29;65.03;96822.59;5220470;28;20197;-68
2021/05/10 03:22:04;;;;;;;3.20;2.80;;;13.40;99.90;;;14.20;65.49;96809.50;5218065;28;20724;-67
2021/05/10 03:24:36;;;;;;;3.03;2.83;;;13.30;99.90;;;14.19;65.56;96805.19;5208419;28;20202;-68
2021/05/10 03:27:09;;;;;;;2.95;2.75;;;13.30;99.90;;;14.20;65.04;96802.66;5215805;28;20298;-69
2021/05/10 03:29:41;;;;;;;2.90;2.80;;;13.20;99.90;;;14.16;64.70;96815.38;5216484;28;20203;-68
2021/05/10 03:32:13;;;;;;;4.97;3.13;;;13.20;99.90;;;13.92;66.47;96831.91;5214533;28;20604;-68
2021/05/10 03:34:46;;;;;;;3.28;2.90;;;13.00;99.90;;;13.80;67.61;96826.44;5213591;28;20671;-67
2021/05/10 03:37:18;;;;;;;3.75;3.20;;;12.90;99.90;;;13.81;67.45;96833.28;5209841;28;20670;-67
2021/05/10 03:39:50;;;;;;;3.65;3.35;;;12.90;99.90;;;13.86;67.33;96831.72;5203372;28;20198;-68
2021/05/10 03:42:23;;;;;;;3.92;3.63;;;12.90;99.90;;;13.89;67.09;96831.81;5216884;28;20225;-67
2021/05/10 03:44:55;;;;;;;3.80;3.50;;;13.00;99.90;;;13.88;66.90;96818.94;5215173;28;20194;-67
2021/05/10 03:47:39;;;;;;;4.55;3.63;;;13.00;99.90;;;14.03;66.16;96839.91;5215045;28;20232;-67
2021/05/10 03:50:13;;;;;;;3.42;3.22;;;13.10;99.90;;;14.03;66.43;96833.91;5208536;28;20236;-67
2021/05/10 03:52:46;;;;;;;3.33;3.08;;;13.20;99.90;;;14.05;66.39;96845.06;5215826;28;20304;-66
2021/05/10 03:55:20;;;;;;;3.72;3.42;;;13.20;99.90;;;14.10;66.44;96825.50;5207634;28;20276;-66
2021/05/10 03:57:54;;;;;;;3.60;3.30;;;13.30;99.90;;;14.10;66.13;96834.09;5209542;28;20311;-66
2021/05/10 04:00:26;;;;;;;3.45;3.15;;;13.30;99.90;;;14.13;65.78;96830.72;5208329;28;20233;-67
2021/05/10 04:02:59;;;;;;;3.30;3.10;;;13.30;99.90;;;14.20;66.35;96842.91;5217558;28;20308;-67
2021/05/10 04:05:51;;;;;;;3.47;3.20;;;13.30;99.90;;;14.22;66.60;96856.66;5215564;28;20202;-67
2021/05/10 04:08:44;;;;;;;3.30;3.10;;;13.30;99.90;;;14.28;66.73;96876.53;5211901;28;20255;-68
2021/05/10 04:11:31;;;;;;;3.55;3.33;;;13.30;99.90;;;14.29;66.54;96904.84;5210550;28;20201;-67
2021/05/10 04:14:04;;;;;;;3.72;3.40;;;13.40;99.90;;;14.31;67.33;96882.63;5212959;28;20328;-66
2021/05/10 04:16:36;;;;;;;3.30;3.10;;;13.40;99.90;;;14.31;66.69;96882.63;5208276;28;20276;-68
2021/05/10 04:19:08;;;;;;;3.75;3.40;;;13.30;99.90;;;14.38;66.14;96878.50;5217147;28;20209;-67
2021/05/10 04:21:40;;;;;;;3.15;2.90;;;13.30;99.90;;;14.19;66.90;96877.16;5215372;28;20271;-68
2021/05/10 04:24:13;;;;;;;3.80;3.50;;;13.20;99.90;;;14.08;67.28;96889.72;5215797;28;20255;-68
2021/05/10 04:26:45;;;;;;;3.47;3.17;;;13.10;99.90;;;14.07;67.20;96895.66;5208455;28;20289;-67
2021/05/10 04:29:18;;;;;;;3.40;3.22;;;13.10;99.90;;;14.11;66.67;96901.78;5215596;28;20402;-67
2021/05/10 04:31:50;;;;;;;3.75;3.40;;;13.10;99.90;;;14.15;67.78;96912.19;5213387;28;20292;-67
2021/05/10 04:34:22;;;;;;;3.28;3.08;;;13.20;99.90;;;14.13;67.23;96908.69;5215047;28;20190;-67
2021/05/10 04:36:54;;;;;;;3.85;3.55;;;13.20;99.90;;;14.15;67.50;96916.44;5207642;28;20820;-67
2021/05/10 04:39:26;;;;;;;3.85;3.58;;;13.20;99.90;;;14.06;67.36;96911.06;5206890;28;20206;-67
2021/05/10 04:41:58;;;;;;;3.38;3.17;;;13.10;99.90;;;14.06;68.14;96916.19;5205328;28;20240;-67
2021/05/10 04:44:31;;;;;;;3.80;3.50;;;13.10;99.90;;;14.13;66.93;96913.81;5208553;28;20228;-67
2021/05/10 04:47:04;;;;;;;3.30;3.10;;;13.20;99.90;;;14.14;68.49;96907.88;5208196;28;20239;-67
2021/05/10 04:49:36;;;;;;;3.72;3.40;;;13.20;99.90;;;14.20;67.94;96904.59;5221384;28;20755;-66
2021/05/10 04:52:12;;;;;;;3.85;3.13;;;13.30;99.90;;;14.26;67.57;96909.91;5199710;28;20221;-67
2021/05/10 04:54:44;;;;;;;3.22;3.03;;;13.40;99.90;;;14.37;66.47;96897.34;5205187;28;20208;-67
2021/05/10 04:57:16;;;;;;;3.67;3.40;;;13.40;99.90;;;14.36;66.63;96906.75;5204035;28;20257;-67
2021/05/10 04:59:49;;;;;;;3.78;3.47;;;13.50;99.90;;;14.45;67.13;96906.16;5209616;28;20293;-66
2021/05/10 05:02:22;;;;;;;3.70;3.40;;;13.50;99.90;;;14.50;67.85;96913.97;5221515;28;20704;-67
2021/05/10 05:04:54;;;;;;;3.65;3.33;;;13.60;99.90;;;14.60;67.29;96916.00;5205123;28;20732;-66
2021/05/10 05:07:26;;;;;;;3.95;3.55;;;13.60;99.90;;;14.69;67.14;96915.34;5205800;28;20670;-67
2021/05/10 05:09:59;;;;;;;3.80;3.58;;;13.70;99.90;;;14.77;66.24;96914.72;5198890;28;20199;-66
2021/05/10 05:12:31;;;;;;;3.97;3.67;;;13.80;99.90;;;14.84;66.52;96900.28;5221794;28;20308;-67
2021/05/10 05:15:08;;;;;;;3.47;2.85;;;13.80;99.90;;;14.88;66.47;96891.84;5207173;28;20456;-67
2021/05/10 05:17:40;;;;;;;3.33;3.03;;;13.80;99.90;;;14.76;66.86;96889.81;5202970;28;20252;-67
2021/05/10 05:20:13;;;;;;;3.53;3.22;;;13.70;99.90;;;14.73;67.54;96882.00;5199048;28;20252;-67
2021/05/10 05:22:46;;;;;;;3.65;3.45;;;13.70;99.90;;;14.71;66.97;96880.22;5204501;28;20261;-67
2021/05/10 05:25:18;;;;;;;3.55;3.30;;;13.60;99.90;;;14.56;67.08;96879.00;5203102;28;20733;-66
2021/05/10 05:27:50;;;;;;;4.13;3.28;;;13.60;99.90;;;14.52;68.18;96896.91;5215084;28;20239;-66
2021/05/10 05:30:24;;;;;;;3.50;3.20;;;13.60;99.90;;;14.60;68.09;96901.41;5207473;28;20749;-65
2021/05/10 05:32:56;;;;;;;3.65;2.97;;;13.70;99.90;;;14.85;64.08;96899.44;5208244;28;20341;-67
2021/05/10 05:35:28;;;;;;;5.30;3.30;;;13.90;99.90;;;14.87;65.01;96901.22;5204393;28;20209;-65
2021/05/10 05:38:00;;;;;;;2.92;2.72;;;14.00;99.90;;;15.03;65.30;96897.34;5206958;28;20225;-65
2021/05/10 05:40:32;;;;;;;3.47;3.22;;;14.10;99.90;;;15.23;64.77;96905.53;5213322;28;20288;-65
2021/05/10 05:43:04;;;;;;;2.92;2.80;;;14.30;99.90;;;15.41;64.49;96910.22;5198995;28;20638;-65
2021/05/10 05:45:39;;;;;;;3.63;3.33;;;14.50;99.90;;;15.68;64.35;96898.81;5199058;28;20198;-66
2021/05/10 05:48:12;;;;;;;3.83;3.30;;;14.70;99.90;;;16.16;64.07;96898.97;5199898;28;20213;-67
2021/05/10 05:50:45;;;;;;;3.22;2.83;;;15.20;99.90;;;16.79;61.66;96904.44;5200833;28;20206;-66
2021/05/10 05:53:17;;;;;;;3.05;2.85;;;15.60;99.90;;;16.77;61.43;96911.28;5199402;28;20785;-66
2021/05/10 05:55:49;;;;;;;3.40;3.10;;;15.70;99.90;;;16.80;61.50;96908.78;5204069;28;20296;-68
2021/05/10 05:58:21;;;;;;;3.00;2.78;;;15.80;99.90;;;16.88;61.75;96912.34;5206183;28;20262;-67
2021/05/10 06:00:54;;;;;;;3.25;3.05;;;15.90;99.90;;;16.96;60.33;96910.75;5204253;28;20753;-66
2021/05/10 06:03:26;;;;;;;3.20;2.90;;;16.00;99.90;;;17.13;60.62;96917.91;5209534;28;20754;-67
2021/05/10 06:05:59;;;;;;;3.75;3.45;;;16.10;99.90;;;17.25;58.48;96898.31;5207673;28;20620;-67
2021/05/10 06:08:31;;;;;;;3.63;3.30;;;16.20;99.90;;;17.34;59.21;96915.69;5211505;28;20251;-68
2021/05/10 06:11:05;;;;;;;3.10;2.90;;;16.30;99.90;;;17.49;59.00;96904.69;5203610;28;20190;-68
2021/05/10 06:13:37;;;;;;;3.08;2.88;;;16.50;99.90;;;17.72;58.51;96921.41;5202093;28;20301;-67
2021/05/10 06:16:11;;;;;;;4.05;3.05;;;16.70;99.90;;;18.11;57.22;96920.19;5205136;28;20566;-67
2021/05/10 06:18:43;;;;;;;3.05;2.85;;;17.00;99.90;;;18.11;57.72;96930.53;5217987;28;20225;-67
2021/05/10 06:21:15;;;;;;;3.38;3.08;;;17.10;99.90;;;18.15;57.94;96952.16;5198226;28;20296;-66
2021/05/10 06:23:49;;;;;;;3.47;3.17;;;17.10;99.90;;;18.14;57.53;96960.75;5204994;28;20230;-66
2021/05/10 06:26:23;;;;;;;3.42;3.22;;;17.10;99.90;;;18.17;57.54;96965.94;5206729;28;20197;-67
2021/05/10 06:28:55;;;;;;;3.35;3.15;;;17.10;99.90;;;18.30;57.08;96969.59;5201320;28;20234;-68
2021/05/10 06:31:28;;;;;;;3.63;3.28;;;17.20;99.90;;;18.34;57.91;96967.06;5210107;28;20213;-68
2021/05/10 06:34:02;;;;;;;3.70;3.40;;;17.20;99.90;;;18.41;58.78;96971.44;5202881;28;20222;-66
2021/05/10 06:36:34;;;;;;;4.70;3.47;;;17.30;99.90;;;18.46;58.76;96969.78;5203676;28;20781;-67
2021/05/10 06:39:07;;;;;;;4.40;3.47;;;17.40;99.90;;;18.56;58.42;96964.72;5209626;28;20324;-67
2021/05/10 06:41:39;;;;;;;4.00;3.38;;;17.40;99.90;;;18.58;58.76;96963.00;5199095;28;20677;-67
2021/05/10 06:44:11;;;;;;;3.80;3.22;;;17.50;99.90;;;18.75;57.81;96948.56;5196719;28;20286;-67
2021/05/10 06:46:44;;;;;;;4.57;3.08;;;17.60;99.90;;;19.20;56.09;96952.44;5203950;28;20260;-68
2021/05/10 06:49:16;;;;;;;3.78;3.40;;;18.00;99.70;;;19.67;54.48;96951.94;5202388;28;20202;-68
2021/05/10 06:51:48;;;;;;;3.83;3.47;;;18.40;98.80;;;20.20;53.04;96940.13;5211786;28;20202;-68
2021/05/10 06:54:20;;;;;;;4.47;3.33;;;18.90;97.90;;;20.57;51.72;96941.13;5208156;28;20718;-67
2021/05/10 06:56:53;;;;;;;4.78;2.97;;;19.20;97.20;;;20.90;51.18;96942.09;5209164;28;20316;-68
2021/05/10 06:59:25;;;;;;;3.58;3.28;;;19.60;96.80;;;21.14;50.36;96947.31;5204291;28;20210;-67
2021/05/10 07:01:58;;;;;;;4.18;3.75;;;19.80;96.20;;;21.23;50.11;96948.19;5203617;28;20206;-67
2021/05/10 07:04:30;;;;;;;5.03;3.22;;;19.90;96.00;;;21.26;50.33;96961.16;5205285;28;20201;-67
2021/05/10 07:07:02;;;;;;;3.80;3.40;;;20.00;96.20;;;21.35;50.85;96971.59;5211490;28;20562;-67
2021/05/10 07:09:35;;;;;;;3.58;3.38;;;20.10;96.50;;;21.47;51.24;96986.38;5213536;28;20236;-67
2021/05/10 07:12:07;;;;;;;3.35;2.90;;;20.20;96.90;;;21.45;51.13;96982.88;5211033;28;20310;-67
2021/05/10 07:14:39;;;;;;;4.03;3.60;;;20.10;97.00;;;21.54;51.75;96982.88;5204107;28;20695;-65
2021/05/10 07:17:12;;;;;;;4.05;3.30;;;20.20;97.10;;;21.46;51.76;96976.81;5213759;28;20230;-67
2021/05/10 07:19:45;;;;;;;3.42;3.13;;;20.10;97.00;;;21.51;51.49;96978.53;5204163;28;20236;-68
2021/05/10 07:22:17;;;;;;;3.17;2.83;;;20.20;97.00;;;21.72;51.27;97003.69;5206758;28;20253;-67
2021/05/10 07:24:49;;;;;;;6.93;3.17;;;20.40;96.80;;;21.93;51.07;97013.19;5207133;28;20287;-68
2021/05/10 07:27:21;;;;;;;2.88;2.67;;;20.60;96.60;;;22.18;49.46;97031.41;5208128;28;20194;-67
2021/05/10 07:29:53;;;;;;;3.17;2.63;;;20.90;95.50;;;22.52;48.25;97044.31;5209370;28;20230;-67
2021/05/10 07:32:26;;;;;;;3.08;2.72;;;21.10;94.70;;;22.48;47.57;97044.34;5198793;28;20729;-68
2021/05/10 07:35:00;;;;;;;3.88;3.03;;;21.10;94.30;;;22.54;47.03;97055.63;5205546;28;20661;-68
2021/05/10 07:37:32;;;;;;;3.30;3.10;;;21.20;93.90;;;22.80;46.37;97058.97;5204692;28;20321;-67
2021/05/10 07:40:06;;;;;;;3.33;2.78;;;21.40;93.40;;;23.10;44.91;97064.97;5215559;28;20217;-70
2021/05/10 07:42:38;;;;;;;3.90;2.47;;;21.60;92.60;;;23.33;44.29;97052.66;5213332;28;20240;-67
2021/05/10 07:45:11;;;;;;;2.70;2.50;;;21.80;91.80;;;23.39;44.33;97046.53;5207738;28;20613;-67
2021/05/10 07:47:44;;;;;;;3.35;2.58;;;21.90;92.00;;;23.37;43.58;97038.72;5209817;28;20289;-68
2021/05/10 07:50:16;;;;;;;3.38;2.40;;;21.90;91.30;;;23.65;44.04;97042.88;5217782;28;20614;-67
2021/05/10 07:52:49;;;;;;;2.92;2.63;;;22.10;91.60;;;24.13;42.74;97057.28;5213890;28;20726;-67
2021/05/10 07:55:23;;;;;;;2.70;2.50;;;22.50;91.10;;;24.67;41.25;97052.38;5213425;28;20215;-67
2021/05/10 07:57:55;;;;;;;2.60;2.40;;;23.00;89.60;;;24.81;40.93;97038.25;5206590;28;20778;-67
2021/05/10 08:00:29;;;;;;;2.47;2.28;;;23.30;89.30;;;25.11;40.44;97022.16;5213305;28;20202;-66
2021/05/10 08:03:07;;;;;;;2.70;2.35;;;23.80;86.90;;;25.48;38.72;97034.75;5213387;28;20306;-66
2021/05/10 08:05:43;;;;;;;2.42;2.15;;;24.20;84.40;;;25.69;38.02;97037.91;5210766;28;20293;-65
2021/05/10 08:08:17;;;;;;;2.42;2.33;;;24.40;83.00;;;25.85;38.03;97044.66;5203414;28;20199;-66
2021/05/10 08:10:49;;;;;;;3.15;2.25;;;24.50;82.40;;;25.69;38.66;97048.38;5215896;28;20306;-67
2021/05/10 08:13:21;;;;;;;3.88;2.50;;;24.30;83.80;;;25.60;38.98;97055.47;5208970;28;20217;-65
2021/05/10 08:15:53;;;;;;;2.75;2.20;;;24.20;83.70;;;25.67;38.83;97051.03;5215828;28;20293;-66
2021/05/10 08:18:26;;;;;;;2.35;1.95;;;24.40;83.90;;;25.94;37.98;97054.97;5214891;28;20307;-66
2021/05/10 08:20:59;;;;;;;2.78;2.13;;;24.60;82.00;;;26.24;37.47;97055.31;5217800;28;20296;-66
2021/05/10 08:23:31;;;;;;;3.25;1.98;;;25.00;81.60;;;26.56;37.33;97072.25;5207357;28;20220;-66
2021/05/10 08:26:03;;;;;;;2.65;2.45;;;25.40;80.20;;;26.47;37.59;97081.13;5208393;28;20204;-67
2021/05/10 08:28:36;;;;;;;2.33;2.10;;;25.20;79.60;;;26.59;36.73;97080.91;5213938;28;20638;-68
2021/05/10 08:31:08;;;;;;;2.40;2.20;;;25.20;79.80;;;26.55;36.19;97088.84;5214183;28;20202;-65
2021/05/10 08:33:41;;;;;;;2.35;2.17;;;25.10;78.70;;;26.22;36.81;97083.31;5206778;28;20616;-66
2021/05/10 08:36:16;;;;;;;3.45;2.10;;;24.60;79.90;;;26.19;36.48;97067.66;5213514;28;20225;-66
2021/05/10 08:38:50;;;;;;;2.65;2.47;;;24.60;79.90;;;25.94;36.66;97054.09;5208913;28;20221;-67
2021/05/10 08:41:22;;;;;;;2.33;2.00;;;24.40;79.90;;;25.77;37.64;97052.59;5215064;28;20196;-66
2021/05/10 08:43:58;;;;;;;2.53;2.33;;;24.30;81.00;;;25.68;38.38;97049.28;5215255;28;20221;-67
2021/05/10 08:46:30;;;;;;;2.72;2.50;;;24.20;81.90;;;25.67;38.73;97044.91;5206675;28;20198;-67
2021/05/10 08:49:04;;;;;;;3.78;2.22;;;24.30;82.30;;;25.93;37.47;97053.25;5217718;28;20284;-67
2021/05/10 08:51:39;;;;;;;2.88;2.40;;;24.60;79.70;;;26.25;36.35;97062.28;5215013;28;20224;-67
2021/05/10 08:54:20;;;;;;;3.03;2.40;;;25.10;78.30;;;26.46;37.50;97072.38;5206462;28;20290;-68
2021/05/10 08:56:53;;;;;;;2.50;2.22;;;25.40;79.70;;;26.60;36.46;97069.53;5207766;28;20289;-67
2021/05/10 08:59:25;;;;;;;2.83;2.60;;;25.60;78.60;;;26.84;36.26;97060.31;5210551;28;20284;-68
2021/05/10 09:01:59;;;;;;;2.70;2.50;;;25.90;77.30;;;26.90;35.88;97054.94;5212305;28;20292;-68
2021/05/10 09:04:37;;;;;;;2.50;2.30;;;26.00;76.00;;;26.85;37.19;97035.81;5218201;28;20292;-67
2021/05/10 09:07:16;;;;;;;3.83;2.10;;;25.80;78.80;;;26.95;36.41;97045.19;5210163;28;20229;-66
2021/05/10 09:09:54;;;;;;;2.70;2.30;;;26.00;77.40;;;27.00;37.04;97052.13;5214234;28;20721;-66
2021/05/10 09:12:42;;;;;;;2.20;2.10;;;26.20;78.10;;;26.96;36.48;97053.94;5205806;28;20231;-67
2021/05/10 09:15:24;;;;;;;2.75;2.00;;;26.20;77.20;;;27.15;36.40;97033.41;5202634;28;20210;-66
2021/05/10 09:17:58;;;;;;;4.03;2.30;;;26.30;76.60;;;27.38;36.40;97044.28;5214459;28;20762;-65
2021/05/10 09:20:33;;;;;;;2.53;2.17;;;26.60;76.90;;;27.50;35.78;97045.78;5213398;28;20201;-65
2021/05/10 09:23:08;;;;;;;2.38;2.17;;;26.60;75.30;;;27.52;35.51;97045.72;5210371;28;20223;-65
2021/05/10 09:25:43;;;;;;;3.92;2.42;;;26.60;74.90;;;27.55;34.73;97043.03;5206077;28;20308;-64
2021/05/10 09:28:17;;;;;;;2.47;2.28;;;26.50;74.50;;;27.56;35.48;97053.50;5205450;28;20263;-64
2021/05/10 09:30:51;;;;;;;2.60;2.20;;;26.40;76.00;;;27.57;35.60;97055.22;5217066;28;20300;-63
2021/05/10 09:33:25;;;;;;;2.08;1.98;;;26.50;75.50;;;27.60;36.35;97062.16;5204554;28;20224;-63
2021/05/10 09:36:01;;;;;;;2.78;2.53;;;26.50;77.40;;;27.52;36.23;97058.84;5218023;28;20254;-64
2021/05/10 09:38:35;;;;;;;2.50;2.13;;;26.60;76.80;;;27.32;36.94;97056.69;5205917;28;20311;-65
2021/05/10 09:41:12;;;;;;;4.18;2.35;;;26.40;77.80;;;27.38;36.71;97061.78;5206651;28;20736;-65
2021/05/10 09:43:45;;;;;;;3.67;2.45;;;26.40;77.50;;;27.49;36.50;97066.81;5208378;28;20223;-65
2021/05/10 09:46:18;;;;;;;3.58;2.45;;;26.50;77.30;;;27.65;36.27;97062.94;5216048;28;21637;-65
2021/05/10 09:49:11;;;;;;;4.35;2.13;;;26.70;77.40;;;27.79;34.82;97057.38;5202327;28;20197;-64
2021/05/10 09:51:44;;;;;;;2.38;2.17;;;26.80;74.60;;;27.91;35.98;97056.22;5208252;28;20197;-65
2021/05/10 09:54:35;;;;;;;2.97;2.30;;;26.90;77.40;;;28.05;35.71;97062.84;5212735;28;20201;-64
2021/05/10 09:57:09;;;;;;;2.45;2.20;;;27.10;75.30;;;28.04;35.82;97073.38;5198298;28;20255;-65
2021/05/10 09:59:41;;;;;;;3.42;2.47;;;27.10;75.70;;;27.76;36.49;97076.69;5199979;28;20216;-66
2021/05/10 10:02:33;;;;;;;2.20;2.05;;;26.80;76.90;;;27.56;36.44;97066.63;5212080;28;20274;-65
2021/05/10 10:05:09;;;;;;;2.70;2.50;;;26.60;77.00;;;27.62;37.01;97068.25;5201540;28;20233;-64
2021/05/10 10:07:42;;;;;;;3.45;2.67;;;26.50;77.90;;;27.62;37.69;97057.75;5203264;28;20219;-64
2021/05/10 10:10:16;;;;;;;2.78;2.58;;;26.60;79.20;;;27.77;36.15;97069.66;5210432;28;20657;-65
2021/05/10 10:12:48;;;;;;;2.85;2.33;;;26.80;76.60;;;27.65;37.81;97070.81;5203553;28;20261;-65
2021/05/10 10:15:21;;;;;;;3.13;2.75;;;26.80;78.50;;;27.57;38.66;97092.00;5213266;28;20653;-65
2021/05/10 10:17:53;;;;;;;2.70;2.22;;;26.60;80.30;;;27.61;37.81;97092.78;5201763;28;20217;-65
2021/05/10 10:20:25;;;;;;;3.28;2.17;;;26.60;78.60;;;27.25;38.75;97107.59;5196547;28;20228;-65
2021/05/10 10:22:59;;;;;;;2.92;2.30;;;26.20;80.10;;;26.92;38.95;97105.59;5207300;28;20300;-65
2021/05/10 10:25:32;;;;;;;5.25;2.40;;;25.80;80.80;;;27.10;38.97;97117.50;5199241;28;20595;-65
2021/05/10 10:28:21;;;;;;;5.45;2.70;;;25.80;81.20;;;27.02;39.46;97123.78;5213405;28;20208;-66
2021/05/10 10:31:01;;;;;;;3.03;2.22;;;26.00;81.20;;;26.88;40.04;97124.94;5201158;28;20287;-65
2021/05/10 10:33:38;;;;;;;2.80;2.20;;;25.80;82.00;;;26.96;38.58;97123.03;5198201;28;20228;-65
2021/05/10 10:36:21;;;;;;;3.28;2.42;;;25.90;79.80;;;26.89;38.86;97129.25;5195271;28;20296;-65
2021/05/10 10:39:16;;;;;;;3.83;2.38;;;25.90;80.10;;;26.87;38.32;97120.59;5201480;28;20218;-65
2021/05/10 10:41:54;;;;;;;4.63;2.72;;;25.90;79.00;;;26.77;39.06;97136.53;5207011;28;20213;-65
2021/05/10 10:44:32;;;;;;;5.22;2.25;;;25.80;80.20;;;26.81;39.56;97139.03;5210515;28;20280;-65
2021/05/10 10:47:06;;;;;;;2.65;2.15;;;25.80;81.30;;;26.83;39.89;97158.25;5207455;28;20288;-65